createdAt,value
2023-02-07T00:01:33.932Z,102978.00
2023-02-07T00:04:01.946Z,102986.00
2023-02-07T00:06:35.295Z,102990.00
2023-02-07T00:09:07.484Z,102985.00
2023-02-07T00:11:36.757Z,102985.00
2023-02-07T00:14:08.723Z,102990.00
2023-02-07T00:16:36.692Z,102977.00
2023-02-07T00:19:06.434Z,102970.00
2023-02-07T00:21:34.716Z,102962.00
2023-02-07T00:24:02.744Z,102964.00
2023-02-07T00:26:30.734Z,102974.00
2023-02-07T00:28:58.855Z,102964.00
2023-02-07T00:31:30.249Z,102961.00
2023-02-07T00:34:00.850Z,102956.00
2023-02-07T00:36:31.038Z,102949.00
2023-02-07T00:39:01.139Z,102956.00
2023-02-07T00:41:29.779Z,102962.00
2023-02-07T00:43:57.893Z,102953.00
2023-02-07T00:46:32.816Z,102948.00
2023-02-07T00:49:11.603Z,102949.00
2023-02-07T00:51:40.538Z,102945.00
2023-02-07T00:54:08.579Z,102952.00
2023-02-07T00:56:37.239Z,102943.00
2023-02-07T00:59:05.608Z,102945.00
2023-02-07T01:01:33.584Z,102942.00
2023-02-07T01:04:01.822Z,102942.00
2023-02-07T01:06:34.015Z,102938.00
2023-02-07T01:09:02.969Z,102943.00
2023-02-07T01:11:30.991Z,102931.00
2023-02-07T01:14:01.148Z,102934.00
2023-02-07T01:16:34.977Z,102938.00
2023-02-07T01:19:08.561Z,102947.00
2023-02-07T01:21:36.664Z,102935.00
2023-02-07T01:24:06.419Z,102928.00
2023-02-07T01:26:36.674Z,102928.00
2023-02-07T01:29:05.191Z,102931.00
2023-02-07T01:31:33.127Z,102924.00
2023-02-07T01:34:05.205Z,102923.00
2023-02-07T01:36:33.515Z,102921.00
2023-02-07T01:39:01.440Z,102921.00
2023-02-07T01:41:29.430Z,102921.00
2023-02-07T01:44:29.324Z,102924.00
2023-02-07T01:46:57.762Z,102913.00
2023-02-07T01:49:31.918Z,102914.00
2023-02-07T01:52:05.636Z,102915.00
2023-02-07T01:54:34.992Z,102916.00
2023-02-07T01:57:06.081Z,102913.00
2023-02-07T01:59:36.457Z,102918.00
2023-02-07T02:02:05.517Z,102919.00
2023-02-07T02:04:33.261Z,102916.00
2023-02-07T02:07:01.554Z,102930.00
2023-02-07T02:09:30.522Z,102925.00
2023-02-07T02:12:01.784Z,102929.00
2023-02-07T02:14:51.560Z,102928.00
2023-02-07T02:17:25.353Z,102931.00
2023-02-07T02:20:16.208Z,102941.00
2023-02-07T02:22:50.075Z,102927.00
2023-02-07T02:25:55.577Z,102925.00
2023-02-07T02:28:49.678Z,102919.00
2023-02-07T02:31:48.593Z,102910.00
2023-02-07T02:34:36.732Z,102904.00
2023-02-07T02:37:15.327Z,102905.00
2023-02-07T02:40:00.170Z,102912.00
2023-02-07T02:43:01.553Z,102901.00
2023-02-07T02:45:52.155Z,102899.00
2023-02-07T02:48:20.888Z,102896.00
2023-02-07T02:50:50.009Z,102888.00
2023-02-07T02:53:18.222Z,102885.00
2023-02-07T02:56:01.418Z,102867.00
2023-02-07T02:59:04.891Z,102860.00
2023-02-07T03:02:08.357Z,102863.00
2023-02-07T03:04:56.383Z,102859.00
2023-02-07T03:08:05.316Z,102853.00
2023-02-07T03:10:49.009Z,102858.00
2023-02-07T03:13:52.088Z,102858.00
2023-02-07T03:16:55.526Z,102852.00
2023-02-07T03:20:03.377Z,102856.00
2023-02-07T03:22:31.474Z,102873.00
2023-02-07T03:25:02.317Z,102869.00
2023-02-07T03:27:33.186Z,102873.00
2023-02-07T03:30:04.432Z,102867.00
2023-02-07T03:32:36.616Z,102861.00
2023-02-07T03:35:18.662Z,102859.00
2023-02-07T03:37:56.464Z,102861.00
2023-02-07T03:40:28.185Z,102871.00
2023-02-07T03:43:06.737Z,102863.00
2023-02-07T03:45:35.085Z,102870.00
2023-02-07T03:48:02.930Z,102852.00
2023-02-07T03:50:30.852Z,102854.00
2023-02-07T03:52:58.748Z,102851.00
2023-02-07T03:55:26.848Z,102835.00
2023-02-07T03:57:56.625Z,102839.00
2023-02-07T04:00:24.774Z,102852.00
2023-02-07T04:02:52.668Z,102850.00
2023-02-07T04:05:20.739Z,102852.00
2023-02-07T04:07:48.713Z,102863.00
2023-02-07T04:10:16.684Z,102842.00
2023-02-07T04:12:44.713Z,102850.00
2023-02-07T04:15:13.248Z,102859.00
2023-02-07T04:17:41.069Z,102849.00
2023-02-07T04:20:09.801Z,102859.00
2023-02-07T04:22:37.794Z,102860.00
2023-02-07T04:25:06.563Z,102858.00
2023-02-07T04:27:34.684Z,102853.00
2023-02-07T04:30:02.688Z,102859.00
2023-02-07T04:32:30.553Z,102859.00
2023-02-07T04:34:59.965Z,102855.00
2023-02-07T04:37:28.104Z,102865.00
2023-02-07T04:39:56.091Z,102863.00
2023-02-07T04:42:24.054Z,102859.00
2023-02-07T04:44:52.077Z,102862.00
2023-02-07T04:47:19.787Z,102859.00
2023-02-07T04:49:47.614Z,102857.00
2023-02-07T04:52:15.718Z,102858.00
2023-02-07T04:54:43.571Z,102864.00
2023-02-07T04:57:11.707Z,102873.00
2023-02-07T04:59:39.477Z,102865.00
2023-02-07T05:02:07.345Z,102857.00
2023-02-07T05:04:35.406Z,102859.00
2023-02-07T05:07:03.653Z,102863.00
2023-02-07T05:09:31.588Z,102870.00
2023-02-07T05:11:59.401Z,102870.00
2023-02-07T05:14:27.189Z,102864.00
2023-02-07T05:16:57.847Z,102877.00
2023-02-07T05:19:26.251Z,102885.00
2023-02-07T05:21:53.986Z,102875.00
2023-02-07T05:24:21.904Z,102884.00
2023-02-07T05:26:49.671Z,102880.00
2023-02-07T05:29:17.658Z,102887.00
2023-02-07T05:32:05.301Z,102901.00
2023-02-07T05:34:34.852Z,102899.00
2023-02-07T05:37:02.858Z,102887.00
2023-02-07T05:39:30.903Z,102896.00
2023-02-07T05:41:58.879Z,102895.00
2023-02-07T05:44:26.753Z,102907.00
2023-02-07T05:46:54.697Z,102911.00
2023-02-07T05:49:22.791Z,102905.00
2023-02-07T05:51:50.738Z,102911.00
2023-02-07T05:54:18.734Z,102907.00
2023-02-07T05:56:46.874Z,102909.00
2023-02-07T05:59:14.861Z,102917.00
2023-02-07T06:01:42.955Z,102905.00
2023-02-07T06:04:10.792Z,102901.00
2023-02-07T06:06:38.866Z,102905.00
2023-02-07T06:09:06.614Z,102902.00
2023-02-07T06:11:34.455Z,102902.00
2023-02-07T06:14:02.542Z,102914.00
2023-02-07T06:16:30.456Z,102916.00
2023-02-07T06:18:58.793Z,102899.00
2023-02-07T06:21:44.358Z,102913.00
2023-02-07T06:24:14.566Z,102922.00
2023-02-07T06:26:42.454Z,102919.00
2023-02-07T06:29:10.290Z,102918.00
2023-02-07T06:31:38.188Z,102915.00
2023-02-07T06:34:06.272Z,102913.00
2023-02-07T06:36:35.555Z,102915.00
2023-02-07T06:39:03.792Z,102901.00
2023-02-07T06:41:31.672Z,102913.00
2023-02-07T06:43:59.453Z,102917.00
2023-02-07T06:46:27.395Z,102911.00
2023-02-07T06:48:55.177Z,102914.00
2023-02-07T06:51:23.073Z,102925.00
2023-02-07T06:53:50.890Z,102922.00
2023-02-07T06:56:18.804Z,102924.00
2023-02-07T06:58:49.969Z,102916.00
2023-02-07T07:01:20.417Z,102914.00
2023-02-07T07:03:48.424Z,102918.00
2023-02-07T07:06:16.425Z,102917.00
2023-02-07T07:08:44.345Z,102934.00
2023-02-07T07:11:12.469Z,102928.00
2023-02-07T07:13:40.451Z,102929.00
2023-02-07T07:16:08.290Z,102925.00
2023-02-07T07:18:38.609Z,102926.00
2023-02-07T07:21:09.648Z,102926.00
2023-02-07T07:23:37.884Z,102935.00
2023-02-07T07:26:06.306Z,102927.00
2023-02-07T07:28:35.839Z,102935.00
2023-02-07T07:31:05.624Z,102930.00
2023-02-07T07:33:34.240Z,102925.00
2023-02-07T07:36:03.508Z,102924.00
2023-02-07T07:38:31.806Z,102932.00
2023-02-07T07:41:00.022Z,102931.00
2023-02-07T07:43:28.161Z,102928.00
2023-02-07T07:45:57.720Z,102924.00
2023-02-07T07:48:26.473Z,102924.00
2023-02-07T07:50:55.616Z,102927.00
2023-02-07T07:53:23.694Z,102930.00
2023-02-07T07:55:55.366Z,102923.00
2023-02-07T07:58:24.884Z,102932.00
2023-02-07T08:00:53.115Z,102920.00
2023-02-07T08:03:25.650Z,102929.00
2023-02-07T08:05:53.854Z,102929.00
2023-02-07T08:08:23.576Z,102921.00
2023-02-07T08:10:51.524Z,102919.00
2023-02-07T08:13:20.468Z,102932.00
2023-02-07T08:15:48.591Z,102937.00
2023-02-07T08:18:16.490Z,102933.00
2023-02-07T08:20:44.661Z,102941.00
2023-02-07T08:23:12.639Z,102934.00
2023-02-07T08:25:44.816Z,102942.00
2023-02-07T08:28:13.528Z,102944.00
2023-02-07T08:30:41.528Z,102949.00
2023-02-07T08:33:12.800Z,102945.00
2023-02-07T08:35:40.981Z,102941.00
2023-02-07T08:38:09.181Z,102942.00
2023-02-07T08:40:41.121Z,102937.00
2023-02-07T08:43:12.664Z,102932.00
2023-02-07T08:45:49.760Z,102945.00
2023-02-07T08:48:17.819Z,102951.00
2023-02-07T08:50:45.890Z,102957.00
2023-02-07T08:53:14.040Z,102960.00
2023-02-07T08:55:42.114Z,102960.00
2023-02-07T08:58:10.392Z,102953.00
2023-02-07T09:00:38.827Z,102955.00
2023-02-07T09:03:06.750Z,102957.00
2023-02-07T09:05:34.479Z,102952.00
2023-02-07T09:08:03.285Z,102952.00
2023-02-07T09:10:31.292Z,102960.00
2023-02-07T09:12:59.382Z,102954.00
2023-02-07T09:15:27.536Z,102958.00
2023-02-07T09:17:55.437Z,102958.00
2023-02-07T09:20:26.256Z,102957.00
2023-02-07T09:23:12.963Z,102960.00
2023-02-07T09:25:42.787Z,102965.00
2023-02-07T09:28:11.114Z,102975.00
2023-02-07T09:30:42.189Z,102965.00
2023-02-07T09:33:11.389Z,102968.00
2023-02-07T09:35:40.242Z,102973.00
2023-02-07T09:38:09.849Z,102968.00
2023-02-07T09:40:39.975Z,102959.00
2023-02-07T09:43:14.184Z,102968.00
2023-02-07T09:45:46.394Z,102969.00
2023-02-07T09:48:20.451Z,102964.00
2023-02-07T09:50:55.774Z,102970.00
2023-02-07T09:53:46.537Z,102963.00
2023-02-07T09:56:19.558Z,102964.00
2023-02-07T09:59:33.789Z,102965.00
2023-02-07T10:02:06.222Z,102975.00
2023-02-07T10:04:39.216Z,102970.00
2023-02-07T10:07:08.272Z,102973.00
2023-02-07T10:09:41.324Z,102977.00
2023-02-07T10:12:17.998Z,102992.00
2023-02-07T10:15:21.150Z,102996.00
2023-02-07T10:18:07.518Z,102996.00
2023-02-07T10:21:13.853Z,102999.00
2023-02-07T10:24:02.281Z,103000.00
2023-02-07T10:26:45.928Z,102992.00
2023-02-07T10:29:38.723Z,102987.00
2023-02-07T10:32:24.935Z,102994.00
2023-02-07T10:34:59.844Z,102998.00
2023-02-07T10:37:30.588Z,102995.00
2023-02-07T10:40:06.414Z,102994.00
2023-02-07T10:42:37.859Z,103001.00
2023-02-07T10:45:09.659Z,103000.00
2023-02-07T10:47:41.037Z,103003.00
2023-02-07T10:50:29.303Z,103000.00
2023-02-07T10:52:59.853Z,103006.00
2023-02-07T10:55:42.378Z,103003.00
2023-02-07T10:58:22.844Z,103015.00
2023-02-07T11:00:54.061Z,103016.00
2023-02-07T11:03:22.532Z,103001.00
2023-02-07T11:06:08.108Z,103003.00
2023-02-07T11:08:38.301Z,103005.00
2023-02-07T11:11:30.159Z,103012.00
2023-02-07T11:14:04.040Z,103004.00
2023-02-07T11:16:32.321Z,102995.00
2023-02-07T11:19:03.020Z,102998.00
2023-02-07T11:21:40.104Z,102999.00
2023-02-07T11:24:19.812Z,102993.00
2023-02-07T11:27:04.776Z,102996.00
2023-02-07T11:29:38.095Z,102998.00
2023-02-07T11:32:06.542Z,102994.00
2023-02-07T11:34:43.584Z,102997.00
2023-02-07T11:37:25.065Z,102978.00
2023-02-07T11:39:56.264Z,102980.00
2023-02-07T11:42:32.226Z,102990.00
2023-02-07T11:45:05.170Z,102992.00
2023-02-07T11:47:33.575Z,102993.00
2023-02-07T11:50:04.184Z,102982.00
2023-02-07T11:52:39.849Z,102986.00
2023-02-07T11:55:09.684Z,102984.00
2023-02-07T11:57:38.691Z,102983.00
2023-02-07T12:00:27.996Z,102983.00
2023-02-07T12:03:09.167Z,102981.00
2023-02-07T12:05:40.223Z,102976.00
2023-02-07T12:08:13.924Z,102985.00
2023-02-07T12:10:45.236Z,102989.00
2023-02-07T12:13:15.785Z,102981.00
2023-02-07T12:15:53.495Z,102977.00
2023-02-07T12:18:32.067Z,102977.00
2023-02-07T12:21:19.955Z,102977.00
2023-02-07T12:23:50.477Z,102976.00
2023-02-07T12:26:28.842Z,102968.00
2023-02-07T12:29:22.891Z,102968.00
2023-02-07T12:32:05.167Z,102973.00
2023-02-07T12:34:42.103Z,102979.00
2023-02-07T12:37:32.780Z,102974.00
2023-02-07T12:40:27.353Z,102970.00
2023-02-07T12:43:06.817Z,102964.00
2023-02-07T12:45:47.925Z,102966.00
2023-02-07T12:48:40.057Z,102968.00
2023-02-07T12:51:17.616Z,102978.00
2023-02-07T12:54:30.219Z,102964.00
2023-02-07T12:57:19.325Z,102972.00
2023-02-07T13:00:18.464Z,102960.00
2023-02-07T13:03:20.601Z,102970.00
2023-02-07T13:06:01.517Z,102976.00
2023-02-07T13:08:34.323Z,102965.00
2023-02-07T13:11:18.981Z,102972.00
2023-02-07T13:13:49.721Z,102971.00
2023-02-07T13:16:37.913Z,102973.00
2023-02-07T13:19:23.522Z,102963.00
2023-02-07T13:22:02.442Z,102950.00
2023-02-07T13:24:31.485Z,102951.00
2023-02-07T13:27:04.284Z,102953.00
2023-02-07T13:29:34.445Z,102953.00
2023-02-07T13:32:13.521Z,102953.00
2023-02-07T13:35:11.597Z,102967.00
2023-02-07T13:37:50.289Z,102958.00
2023-02-07T13:40:49.966Z,102957.00
2023-02-07T13:43:37.985Z,102957.00
2023-02-07T13:46:32.346Z,102965.00
2023-02-07T13:49:24.788Z,102956.00
2023-02-07T13:52:02.875Z,102957.00
2023-02-07T13:55:10.746Z,102957.00
2023-02-07T13:58:02.305Z,102949.00
2023-02-07T14:00:34.018Z,102944.00
2023-02-07T14:03:06.875Z,102946.00
2023-02-07T14:05:43.796Z,102949.00
2023-02-07T14:08:17.872Z,102949.00
2023-02-07T14:11:01.651Z,102945.00
2023-02-07T14:13:31.335Z,102944.00
2023-02-07T14:16:02.392Z,102941.00
2023-02-07T14:18:40.905Z,102943.00
2023-02-07T14:21:21.318Z,102943.00
2023-02-07T14:24:04.232Z,102944.00
2023-02-07T14:26:46.422Z,102932.00
2023-02-07T14:29:23.279Z,102935.00
2023-02-07T14:32:02.029Z,102930.00
2023-02-07T14:34:32.365Z,102930.00
2023-02-07T14:37:01.022Z,102928.00
2023-02-07T14:39:31.660Z,102931.00
2023-02-07T14:42:19.119Z,102931.00
2023-02-07T14:44:48.222Z,102929.00
2023-02-07T14:47:42.192Z,102936.00
2023-02-07T14:50:11.024Z,102936.00
2023-02-07T14:52:39.787Z,102942.00
2023-02-07T14:55:13.642Z,102946.00
2023-02-07T14:57:56.915Z,102954.00
2023-02-07T15:00:55.326Z,102948.00
2023-02-07T15:03:26.302Z,102947.00
2023-02-07T15:06:04.619Z,102939.00
2023-02-07T15:08:35.613Z,102940.00
2023-02-07T15:11:08.091Z,102944.00
2023-02-07T15:13:50.007Z,102941.00
2023-02-07T15:16:26.639Z,102949.00
2023-02-07T15:19:24.772Z,102942.00
2023-02-07T15:21:52.932Z,102940.00
2023-02-07T15:24:50.960Z,102944.00
2023-02-07T15:27:27.685Z,102938.00
2023-02-07T15:30:01.836Z,102937.00
2023-02-07T15:32:35.543Z,102940.00
2023-02-07T15:35:14.173Z,102942.00
2023-02-07T15:37:41.935Z,102933.00
2023-02-07T15:40:23.111Z,102927.00
2023-02-07T15:42:54.533Z,102922.00
2023-02-07T15:45:28.256Z,102922.00
2023-02-07T15:48:04.333Z,102926.00
2023-02-07T15:50:32.460Z,102925.00
2023-02-07T15:53:02.438Z,102923.00
2023-02-07T15:55:34.770Z,102927.00
2023-02-07T15:58:03.860Z,102927.00
2023-02-07T16:00:38.839Z,102914.00
2023-02-07T16:03:08.132Z,102924.00
2023-02-07T16:05:40.438Z,102916.00
2023-02-07T16:08:31.182Z,102918.00
2023-02-07T16:11:17.452Z,102909.00
2023-02-07T16:13:48.913Z,102908.00
2023-02-07T16:16:21.102Z,102905.00
2023-02-07T16:18:49.163Z,102912.00
2023-02-07T16:21:26.328Z,102906.00
2023-02-07T16:24:12.568Z,102901.00
2023-02-07T16:26:46.652Z,102909.00
2023-02-07T16:29:25.208Z,102905.00
2023-02-07T16:31:54.305Z,102908.00
2023-02-07T16:34:26.506Z,102914.00
2023-02-07T16:36:55.668Z,102901.00
2023-02-07T16:39:23.901Z,102905.00
2023-02-07T16:41:55.583Z,102905.00
2023-02-07T16:44:24.998Z,102903.00
2023-02-07T16:46:53.808Z,102910.00
2023-02-07T16:49:26.692Z,102908.00
2023-02-07T16:51:55.008Z,102907.00
2023-02-07T16:54:26.206Z,102910.00
2023-02-07T16:56:56.436Z,102906.00
2023-02-07T16:59:24.611Z,102907.00
2023-02-07T17:01:54.411Z,102907.00
2023-02-07T17:04:23.010Z,102900.00
2023-02-07T17:06:51.549Z,102896.00
2023-02-07T17:09:24.616Z,102897.00
2023-02-07T17:11:53.626Z,102882.00
2023-02-07T17:14:22.239Z,102896.00
2023-02-07T17:16:50.564Z,102898.00
2023-02-07T17:19:23.971Z,102881.00
2023-02-07T17:21:52.684Z,102882.00
2023-02-07T17:24:20.906Z,102887.00
2023-02-07T17:26:51.542Z,102879.00
2023-02-07T17:29:22.888Z,102883.00
2023-02-07T17:31:51.154Z,102875.00
2023-02-07T17:34:18.916Z,102887.00
2023-02-07T17:36:49.242Z,102885.00
2023-02-07T17:39:18.596Z,102881.00
2023-02-07T17:41:46.811Z,102884.00
2023-02-07T17:44:14.802Z,102877.00
2023-02-07T17:46:42.737Z,102880.00
2023-02-07T17:49:17.930Z,102876.00
2023-02-07T17:51:46.036Z,102877.00
2023-02-07T17:54:14.204Z,102877.00
2023-02-07T17:56:42.352Z,102889.00
2023-02-07T17:59:21.946Z,102889.00
2023-02-07T18:01:52.033Z,102897.00
2023-02-07T18:04:20.065Z,102897.00
2023-02-07T18:06:48.268Z,102885.00
2023-02-07T18:09:20.430Z,102896.00
2023-02-07T18:11:49.061Z,102898.00
2023-02-07T18:14:17.220Z,102900.00
2023-02-07T18:16:45.306Z,102902.00
2023-02-07T18:19:17.880Z,102900.00
2023-02-07T18:21:46.080Z,102904.00
2023-02-07T18:24:14.020Z,102902.00
2023-02-07T18:26:42.452Z,102912.00
2023-02-07T18:29:12.076Z,102907.00
2023-02-07T18:31:40.174Z,102917.00
2023-02-07T18:34:08.030Z,102920.00
2023-02-07T18:36:40.745Z,102910.00
2023-02-07T18:39:11.189Z,102911.00
2023-02-07T18:41:39.213Z,102908.00
2023-02-07T18:44:10.102Z,102904.00
2023-02-07T18:46:38.413Z,102908.00
2023-02-07T18:49:06.474Z,102905.00
2023-02-07T18:51:35.108Z,102917.00
2023-02-07T18:54:03.032Z,102917.00
2023-02-07T18:56:31.091Z,102914.00
2023-02-07T18:58:59.336Z,102909.00
2023-02-07T19:01:28.977Z,102912.00
2023-02-07T19:03:58.788Z,102913.00
2023-02-07T19:06:31.306Z,102911.00
2023-02-07T19:08:59.881Z,102910.00
2023-02-07T19:11:28.025Z,102910.00
2023-02-07T19:13:55.673Z,102930.00
2023-02-07T19:16:24.797Z,102934.00
2023-02-07T19:18:53.037Z,102924.00
2023-02-07T19:21:27.419Z,102917.00
2023-02-07T19:23:56.762Z,102919.00
2023-02-07T19:26:25.320Z,102925.00
2023-02-07T19:28:53.739Z,102924.00
2023-02-07T19:31:25.475Z,102916.00
2023-02-07T19:33:54.585Z,102915.00
2023-02-07T19:36:23.797Z,102914.00
2023-02-07T19:38:55.160Z,102913.00
2023-02-07T19:41:27.729Z,102909.00
2023-02-07T19:43:55.869Z,102914.00
2023-02-07T19:46:24.252Z,102911.00
2023-02-07T19:48:52.589Z,102918.00
2023-02-07T19:51:22.954Z,102909.00
2023-02-07T19:53:51.855Z,102918.00
2023-02-07T19:56:21.124Z,102915.00
2023-02-07T19:58:51.446Z,102922.00
2023-02-07T20:01:20.455Z,102908.00
2023-02-07T20:03:53.404Z,102905.00
2023-02-07T20:06:23.961Z,102909.00
2023-02-07T20:08:52.142Z,102904.00
2023-02-07T20:11:22.680Z,102906.00
2023-02-07T20:13:54.619Z,102906.00
2023-02-07T20:16:26.260Z,102907.00
2023-02-07T20:18:56.166Z,102901.00
2023-02-07T20:21:28.877Z,102907.00
2023-02-07T20:23:57.735Z,102903.00
2023-02-07T20:26:33.369Z,102905.00
2023-02-07T20:29:03.774Z,102901.00
2023-02-07T20:31:32.340Z,102904.00
2023-02-07T20:34:04.237Z,102905.00
2023-02-07T20:36:33.876Z,102906.00
2023-02-07T20:39:02.425Z,102905.00
2023-02-07T20:41:30.405Z,102888.00
2023-02-07T20:44:07.245Z,102889.00
2023-02-07T20:46:36.536Z,102889.00
2023-02-07T20:49:28.689Z,102896.00
2023-02-07T20:52:00.087Z,102895.00
2023-02-07T20:54:29.569Z,102880.00
2023-02-07T20:56:58.049Z,102890.00
2023-02-07T20:59:32.835Z,102886.00
2023-02-07T21:02:01.098Z,102896.00
2023-02-07T21:04:29.950Z,102884.00
2023-02-07T21:07:01.341Z,102881.00
2023-02-07T21:09:29.690Z,102881.00
2023-02-07T21:11:58.654Z,102881.00
2023-02-07T21:14:32.060Z,102866.00
2023-02-07T21:17:02.365Z,102859.00
2023-02-07T21:19:30.246Z,102870.00
2023-02-07T21:21:58.805Z,102869.00
2023-02-07T21:24:27.094Z,102864.00
2023-02-07T21:26:55.887Z,102859.00
2023-02-07T21:29:24.202Z,102869.00
2023-02-07T21:31:53.153Z,102860.00
2023-02-07T21:34:22.429Z,102859.00
2023-02-07T21:36:50.611Z,102864.00
2023-02-07T21:39:18.870Z,102864.00
2023-02-07T21:41:47.547Z,102864.00
2023-02-07T21:44:16.073Z,102857.00
2023-02-07T21:46:48.660Z,102859.00
2023-02-07T21:49:18.248Z,102858.00
2023-02-07T21:51:48.385Z,102854.00
2023-02-07T21:54:16.234Z,102851.00
2023-02-07T21:56:44.759Z,102853.00
2023-02-07T21:59:17.878Z,102851.00
2023-02-07T22:01:47.065Z,102850.00
2023-02-07T22:04:15.625Z,102854.00
2023-02-07T22:06:44.633Z,102840.00
2023-02-07T22:09:14.142Z,102838.00
2023-02-07T22:11:42.631Z,102842.00
2023-02-07T22:14:15.650Z,102834.00
2023-02-07T22:16:43.587Z,102833.00
2023-02-07T22:19:13.920Z,102830.00
2023-02-07T22:21:41.852Z,102828.00
2023-02-07T22:24:12.358Z,102839.00
2023-02-07T22:26:40.505Z,102844.00
2023-02-07T22:29:08.986Z,102846.00
2023-02-07T22:31:38.810Z,102846.00
2023-02-07T22:34:14.312Z,102854.00
2023-02-07T22:36:43.568Z,102859.00
2023-02-07T22:39:12.974Z,102855.00
2023-02-07T22:41:40.907Z,102856.00
2023-02-07T22:44:08.862Z,102855.00
2023-02-07T22:46:36.735Z,102851.00
2023-02-07T22:49:04.501Z,102850.00
2023-02-07T22:51:34.758Z,102852.00
2023-02-07T22:54:05.803Z,102858.00
2023-02-07T22:56:35.879Z,102856.00
2023-02-07T22:59:04.464Z,102867.00
2023-02-07T23:01:34.797Z,102864.00
2023-02-07T23:04:04.275Z,102869.00
2023-02-07T23:06:35.052Z,102875.00
2023-02-07T23:09:05.425Z,102867.00
2023-02-07T23:11:33.943Z,102870.00
2023-02-07T23:14:04.104Z,102862.00
2023-02-07T23:16:32.296Z,102869.00
2023-02-07T23:19:08.157Z,102874.00
2023-02-07T23:21:36.422Z,102868.00
2023-02-07T23:24:04.760Z,102860.00
2023-02-07T23:26:32.811Z,102864.00
2023-02-07T23:29:00.524Z,102865.00
2023-02-07T23:31:28.447Z,102875.00
2023-02-07T23:33:56.253Z,102875.00
2023-02-07T23:36:24.528Z,102867.00
2023-02-07T23:38:52.414Z,102866.00
2023-02-07T23:41:20.322Z,102871.00
2023-02-07T23:43:48.274Z,102881.00
2023-02-07T23:46:17.636Z,102872.00
2023-02-07T23:48:45.951Z,102865.00
2023-02-07T23:51:15.104Z,102870.00
2023-02-07T23:53:44.275Z,102876.00
2023-02-07T23:56:17.005Z,102870.00
2023-02-07T23:58:45.323Z,102879.00
